Time;durP1;ratioP1;P1;durP2;ratioP2;P2;SDS_P1;SDS_P2;PMS_P1;PMS_P2;Temp;Humidity;BMP_temperature;BMP_pressure;BME280_temperature;BME280_humidity;BME280_pressure;Samples;Min_cycle;Max_cycle;Signal;HPM_P1;HPM_P2
2023/10/31 00:01:56;;;;;;;0.10;0.10;;;;;;;10.60;100.00;97554.88;4906260;29;20131;-60
2023/10/31 00:04:23;;;;;;;0.20;0.20;;;;;;;10.66;100.00;97553.72;4912366;29;20562;-60
2023/10/31 00:06:51;;;;;;;0.10;0.10;;;;;;;10.58;100.00;97561.31;4902768;29;20159;-61
2023/10/31 00:09:18;;;;;;;0.20;0.20;;;;;;;10.46;100.00;97555.53;4911164;29;20099;-61
2023/10/31 00:11:45;;;;;;;0.20;0.20;;;;;;;10.32;100.00;97565.28;4899171;29;20144;-60
2023/10/31 00:14:12;;;;;;;0.20;0.20;;;;;;;10.38;100.00;97566.03;4903104;29;20047;-60
2023/10/31 00:16:41;;;;;;;0.10;0.10;;;;;;;10.36;100.00;97574.38;4904305;29;20721;-60
2023/10/31 00:19:08;;;;;;;0.20;0.20;;;;;;;10.35;100.00;97572.75;4908966;29;20082;-60
2023/10/31 00:21:35;;;;;;;0.20;0.20;;;;;;;10.34;100.00;97577.31;4902942;29;20547;-59
2023/10/31 00:24:04;;;;;;;0.10;0.10;;;;;;;10.26;100.00;97569.06;4897807;29;20051;-60
2023/10/31 00:26:30;;;;;;;0.20;0.20;;;;;;;10.23;100.00;97580.34;4907195;29;20088;-60
2023/10/31 00:28:58;;;;;;;0.20;0.20;;;;;;;10.18;100.00;97575.00;4910945;29;20043;-60
2023/10/31 00:31:25;;;;;;;0.25;0.25;;;;;;;10.19;100.00;97573.97;4909124;29;20078;-59
2023/10/31 00:33:52;;;;;;;0.20;0.20;;;;;;;10.26;100.00;97574.41;4902822;29;20535;-60
2023/10/31 00:36:19;;;;;;;0.20;0.20;;;;;;;10.14;100.00;97572.91;4910068;29;20071;-60
2023/10/31 00:38:46;;;;;;;0.20;0.20;;;;;;;10.17;100.00;97576.09;4903453;29;20076;-60
2023/10/31 00:41:15;;;;;;;0.20;0.20;;;;;;;10.02;100.00;97572.47;4902752;29;20048;-60
2023/10/31 00:43:42;;;;;;;0.20;0.20;;;;;;;10.07;100.00;97576.97;4901252;29;20044;-61
2023/10/31 00:46:09;;;;;;;0.10;0.10;;;;;;;10.13;100.00;97586.56;4905933;29;20082;-60
2023/10/31 00:48:37;;;;;;;0.20;0.20;;;;;;;10.04;100.00;97572.97;4903398;29;20136;-60
2023/10/31 00:51:04;;;;;;;0.20;0.20;;;;;;;10.08;100.00;97568.69;4905078;29;20447;-60
2023/10/31 00:53:32;;;;;;;0.20;0.20;;;;;;;10.02;100.00;97569.00;4904660;29;20152;-60
2023/10/31 00:55:59;;;;;;;0.20;0.20;;;;;;;9.98;100.00;97573.28;4907919;29;20083;-60
2023/10/31 00:58:27;;;;;;;0.20;0.20;;;;;;;9.95;100.00;97569.28;4904990;29;20880;-60
2023/10/31 01:00:54;;;;;;;0.20;0.20;;;;;;;9.85;100.00;97570.16;4907798;29;20041;-58
2023/10/31 01:03:21;;;;;;;0.20;0.20;;;;;;;9.84;100.00;97573.13;4907911;29;20486;-59
2023/10/31 01:05:48;;;;;;;0.25;0.25;;;;;;;9.67;100.00;97571.63;4904163;29;20100;-59
2023/10/31 01:08:15;;;;;;;0.20;0.20;;;;;;;9.74;100.00;97573.19;4906232;29;20320;-61
2023/10/31 01:10:42;;;;;;;0.20;0.20;;;;;;;9.65;100.00;97567.63;4907822;29;20055;-61
2023/10/31 01:13:10;;;;;;;0.20;0.20;;;;;;;9.72;100.00;97574.25;4902856;29;20131;-58
2023/10/31 01:15:38;;;;;;;0.30;0.30;;;;;;;9.68;100.00;97578.59;4913745;29;20478;-58
2023/10/31 01:18:05;;;;;;;0.20;0.20;;;;;;;9.75;100.00;97585.50;4905594;29;20048;-58
2023/10/31 01:20:32;;;;;;;0.20;0.20;;;;;;;9.76;100.00;97576.38;4901755;29;20052;-59
2023/10/31 01:22:59;;;;;;;0.20;0.20;;;;;;;9.67;100.00;97578.84;4906752;29;20057;-61
2023/10/31 01:25:26;;;;;;;0.20;0.20;;;;;;;9.58;100.00;97570.59;4904401;29;20075;-60
2023/10/31 01:27:53;;;;;;;0.20;0.20;;;;;;;9.59;100.00;97577.56;4907006;29;20115;-61
2023/10/31 01:30:20;;;;;;;0.20;0.20;;;;;;;9.55;100.00;97581.84;4911272;29;20122;-58
2023/10/31 01:32:49;;;;;;;0.20;0.20;;;;;;;9.66;100.00;97588.75;4897959;29;20060;-61
2023/10/31 01:35:16;;;;;;;0.20;0.20;;;;;;;9.57;100.00;97593.06;4898210;29;20139;-60
2023/10/31 01:37:43;;;;;;;0.20;0.20;;;;;;;9.58;100.00;97578.63;4896544;29;20052;-58
2023/10/31 01:40:13;;;;;;;0.20;0.20;;;;;;;9.55;100.00;97589.88;4905748;29;20525;-58
2023/10/31 01:42:40;;;;;;;0.20;0.20;;;;;;;9.58;100.00;97586.63;4904538;29;20048;-58
2023/10/31 01:45:09;;;;;;;0.30;0.30;;;;;;;9.69;100.00;97592.75;4907998;29;20063;-61
2023/10/31 01:47:36;;;;;;;0.15;0.15;;;;;;;9.77;100.00;97594.03;4905542;29;20048;-58
2023/10/31 01:50:05;;;;;;;0.20;0.20;;;;;;;9.68;100.00;97608.00;4907861;29;20126;-58
2023/10/31 01:52:32;;;;;;;0.30;0.30;;;;;;;9.58;100.00;97613.38;4905303;29;20127;-58
2023/10/31 01:55:00;;;;;;;0.20;0.20;;;;;;;9.61;100.00;97618.22;4908780;29;20443;-59
2023/10/31 01:57:27;;;;;;;0.30;0.30;;;;;;;9.65;100.00;97627.25;4905326;29;20052;-61
2023/10/31 01:59:54;;;;;;;0.20;0.20;;;;;;;9.65;100.00;97627.25;4906366;29;20396;-61
2023/10/31 02:02:22;;;;;;;0.30;0.30;;;;;;;9.69;100.00;97627.53;4901251;29;20068;-60
2023/10/31 02:04:50;;;;;;;0.20;0.20;;;;;;;9.66;100.00;97620.84;4898979;29;20574;-60
2023/10/31 02:07:18;;;;;;;0.30;0.30;;;;;;;9.59;100.00;97624.91;4904571;29;20047;-60
2023/10/31 02:09:46;;;;;;;0.20;0.20;;;;;;;9.58;100.00;97624.09;4900041;29;20112;-60
2023/10/31 02:12:33;;;;;;;0.20;0.20;;;;;;;9.63;100.00;97621.38;4898068;29;20045;-58
2023/10/31 02:15:00;;;;;;;0.20;0.20;;;;;;;9.55;100.00;97616.63;4899280;29;20392;-60
2023/10/31 02:17:27;;;;;;;0.20;0.20;;;;;;;9.51;100.00;97612.91;4913260;29;20040;-60
2023/10/31 02:19:54;;;;;;;0.30;0.30;;;;;;;9.45;100.00;97609.44;4910608;29;20608;-60
2023/10/31 02:22:23;;;;;;;0.10;0.10;;;;;;;9.47;100.00;97603.81;4907319;29;20048;-60
2023/10/31 02:24:50;;;;;;;0.20;0.20;;;;;;;9.45;100.00;97603.28;4908118;29;20044;-61
2023/10/31 02:27:17;;;;;;;0.20;0.20;;;;;;;9.33;100.00;97610.84;4909446;29;20395;-60
2023/10/31 02:29:44;;;;;;;0.10;0.10;;;;;;;9.27;100.00;97618.88;4906066;29;20113;-60
2023/10/31 02:32:12;;;;;;;0.20;0.20;;;;;;;9.41;100.00;97612.94;4908088;29;20048;-60
2023/10/31 02:34:39;;;;;;;0.20;0.20;;;;;;;9.34;100.00;97612.44;4902645;29;20052;-60
2023/10/31 02:37:06;;;;;;;0.25;0.25;;;;;;;9.38;100.00;97618.84;4899773;29;20063;-59
2023/10/31 02:39:34;;;;;;;0.20;0.20;;;;;;;9.25;100.00;97615.66;4916541;29;20074;-59
2023/10/31 02:42:02;;;;;;;0.20;0.20;;;;;;;9.25;100.00;97621.00;4902329;29;20049;-59
2023/10/31 02:44:29;;;;;;;0.20;0.20;;;;;;;9.15;100.00;97629.06;4912716;29;20053;-59
2023/10/31 02:46:56;;;;;;;0.20;0.20;;;;;;;9.12;100.00;97626.94;4907786;29;20049;-59
2023/10/31 02:49:23;;;;;;;0.20;0.20;;;;;;;9.05;100.00;97623.75;4913428;29;20075;-59
2023/10/31 02:51:50;;;;;;;0.20;0.20;;;;;;;9.05;100.00;97629.09;4902448;29;20048;-59
2023/10/31 02:54:17;;;;;;;0.20;0.20;;;;;;;9.11;100.00;97630.69;4909305;29;20048;-59
2023/10/31 02:56:45;;;;;;;0.20;0.20;;;;;;;9.03;100.00;97631.25;4905885;29;20072;-59
2023/10/31 02:59:12;;;;;;;0.20;0.20;;;;;;;8.89;100.00;97627.56;4901864;29;20074;-59
2023/10/31 03:01:39;;;;;;;0.20;0.20;;;;;;;8.84;100.00;97642.50;4906016;29;20080;-59
2023/10/31 03:04:06;;;;;;;0.20;0.20;;;;;;;8.71;100.00;97647.59;4910525;29;20515;-59
2023/10/31 03:06:33;;;;;;;0.20;0.20;;;;;;;8.66;100.00;97645.72;4902348;29;20041;-59
2023/10/31 03:09:00;;;;;;;0.20;0.20;;;;;;;8.61;100.00;97645.72;4914963;29;20139;-59
2023/10/31 03:11:28;;;;;;;0.20;0.20;;;;;;;8.59;100.00;97655.91;4906582;29;20056;-59
2023/10/31 03:13:58;;;;;;;0.32;0.32;;;;;;;8.52;100.00;97655.34;4921465;29;20045;-59
2023/10/31 03:16:25;;;;;;;0.20;0.20;;;;;;;8.40;100.00;97659.06;4914086;29;20052;-59
2023/10/31 03:18:53;;;;;;;0.22;0.22;;;;;;;8.33;100.00;97663.03;4906993;29;20111;-59
2023/10/31 03:21:20;;;;;;;0.20;0.20;;;;;;;8.26;100.00;97662.50;4905059;29;20083;-59
2023/10/31 03:23:48;;;;;;;0.30;0.30;;;;;;;8.28;100.00;97666.50;4895325;29;20507;-59
2023/10/31 03:26:15;;;;;;;0.20;0.20;;;;;;;8.22;100.00;97667.59;4904668;29;20055;-59
2023/10/31 03:28:42;;;;;;;0.30;0.30;;;;;;;8.14;100.00;97670.78;4898992;29;20036;-59
2023/10/31 03:31:12;;;;;;;0.20;0.20;;;;;;;8.19;100.00;97678.78;4901860;29;20083;-59
2023/10/31 03:33:39;;;;;;;0.30;0.30;;;;;;;8.19;100.00;97676.13;4906163;29;20137;-59
2023/10/31 03:36:06;;;;;;;0.30;0.30;;;;;;;8.15;100.00;97675.03;4905369;29;20139;-59
2023/10/31 03:38:34;;;;;;;0.30;0.30;;;;;;;8.14;100.00;97671.56;4914967;29;20048;-59
2023/10/31 03:41:01;;;;;;;0.20;0.20;;;;;;;8.19;100.00;97673.47;4908893;29;20450;-59
2023/10/31 03:43:28;;;;;;;0.20;0.20;;;;;;;8.18;100.00;97679.84;4900328;29;20115;-59
2023/10/31 03:45:56;;;;;;;0.30;0.30;;;;;;;8.29;100.00;97684.16;4902705;29;20443;-59
2023/10/31 03:48:24;;;;;;;0.20;0.20;;;;;;;8.40;100.00;97687.66;4911368;29;20071;-59
2023/10/31 03:50:51;;;;;;;0.20;0.20;;;;;;;8.40;100.00;97691.13;4912582;29;20444;-59
2023/10/31 03:53:18;;;;;;;0.20;0.20;;;;;;;8.40;100.00;97690.31;4903383;29;20558;-59
2023/10/31 03:55:45;;;;;;;0.25;0.25;;;;;;;8.40;100.00;97691.13;4901118;29;20052;-59
2023/10/31 03:58:11;;;;;;;0.20;0.20;;;;;;;8.46;100.00;97694.59;4898906;29;20098;-59
2023/10/31 04:00:39;;;;;;;0.30;0.30;;;;;;;8.55;100.00;97692.19;4910566;29;20052;-59
2023/10/31 04:03:07;;;;;;;0.30;0.30;;;;;;;8.63;100.00;97689.78;4903406;29;20044;-60
2023/10/31 04:05:35;;;;;;;0.20;0.20;;;;;;;8.75;100.00;97681.50;4909199;29;20048;-59
2023/10/31 04:08:02;;;;;;;0.30;0.30;;;;;;;8.78;100.00;97691.66;4902091;29;20087;-59
2023/10/31 04:10:29;;;;;;;0.20;0.20;;;;;;;8.85;100.00;97697.53;4903761;29;20040;-59
2023/10/31 04:12:56;;;;;;;0.20;0.20;;;;;;;8.87;100.00;97699.94;4907623;29;20056;-59
2023/10/31 04:15:23;;;;;;;0.20;0.20;;;;;;;8.89;100.00;97703.16;4903582;29;20083;-60
2023/10/31 04:17:50;;;;;;;0.20;0.20;;;;;;;8.90;100.00;97693.25;4906148;29;20250;-59
2023/10/31 04:20:17;;;;;;;0.30;0.30;;;;;;;8.88;100.00;97703.41;4906819;29;20040;-59
2023/10/31 04:22:46;;;;;;;0.30;0.30;;;;;;;8.90;100.00;97714.63;4904084;29;20143;-59
2023/10/31 04:25:13;;;;;;;0.20;0.20;;;;;;;8.85;100.00;97721.56;4901442;29;20055;-59
2023/10/31 04:27:40;;;;;;;0.30;0.30;;;;;;;8.87;100.00;97717.84;4911244;29;20047;-59
2023/10/31 04:30:08;;;;;;;0.30;0.30;;;;;;;8.84;100.00;97722.66;4899179;29;20055;-59
2023/10/31 04:32:35;;;;;;;0.10;0.10;;;;;;;8.90;100.00;97726.13;4906842;29;20100;-59
2023/10/31 04:35:02;;;;;;;0.20;0.20;;;;;;;8.90;100.00;97733.34;4903178;29;20575;-59
2023/10/31 04:37:30;;;;;;;0.20;0.20;;;;;;;8.94;100.00;97737.88;4909823;29;20123;-59
2023/10/31 04:39:58;;;;;;;0.30;0.30;;;;;;;8.99;100.00;97740.56;4898302;29;20148;-59
2023/10/31 04:42:25;;;;;;;0.22;0.22;;;;;;;9.01;100.00;97740.28;4897728;29;20060;-59
2023/10/31 04:44:52;;;;;;;0.30;0.30;;;;;;;9.01;100.00;97751.78;4900432;29;20056;-59
2023/10/31 04:47:19;;;;;;;0.17;0.17;;;;;;;9.04;100.00;97740.56;4906490;29;20139;-59
2023/10/31 04:49:46;;;;;;;0.30;0.30;;;;;;;9.05;100.00;97744.81;4906766;29;20059;-59
2023/10/31 04:52:14;;;;;;;0.20;0.20;;;;;;;9.06;100.00;97748.28;4907404;29;20041;-59
2023/10/31 04:54:41;;;;;;;0.20;0.20;;;;;;;9.16;100.00;97740.28;4903252;29;20040;-59
2023/10/31 04:57:09;;;;;;;0.20;0.20;;;;;;;9.10;100.00;97748.56;4899862;29;20045;-59
2023/10/31 04:59:37;;;;;;;0.20;0.20;;;;;;;9.07;100.00;97755.25;4900916;29;20460;-59
2023/10/31 05:02:04;;;;;;;0.20;0.20;;;;;;;9.17;100.00;97768.59;4897679;29;20615;-59
2023/10/31 05:04:32;;;;;;;0.20;0.20;;;;;;;9.18;100.00;97764.84;4896743;29;20051;-61
2023/10/31 05:06:59;;;;;;;0.20;0.20;;;;;;;9.17;100.00;97767.81;4900798;29;20044;-60
2023/10/31 05:09:27;;;;;;;0.20;0.20;;;;;;;9.05;100.00;97762.72;4903252;29;20040;-61
2023/10/31 05:11:54;;;;;;;0.20;0.20;;;;;;;9.04;100.00;97758.47;4903526;29;20469;-61
2023/10/31 05:14:23;;;;;;;0.22;0.22;;;;;;;9.06;100.00;97761.66;4901055;29;20062;-61
2023/10/31 05:16:50;;;;;;;0.30;0.30;;;;;;;9.14;100.00;97766.47;4906339;29;20052;-61
2023/10/31 05:19:17;;;;;;;0.15;0.15;;;;;;;9.14;100.00;97768.34;4901751;29;20056;-59
2023/10/31 05:21:44;;;;;;;0.20;0.20;;;;;;;9.07;100.00;97771.28;4911489;29;20082;-59
2023/10/31 05:24:11;;;;;;;0.20;0.20;;;;;;;9.06;100.00;97769.66;4897919;29;20111;-61
2023/10/31 05:26:40;;;;;;;0.20;0.20;;;;;;;9.07;100.00;97768.63;4901156;29;20411;-58
2023/10/31 05:29:07;;;;;;;0.20;0.20;;;;;;;8.97;100.00;97774.75;4907561;29;20079;-58
2023/10/31 05:31:36;;;;;;;0.20;0.20;;;;;;;9.00;100.00;97774.22;4907865;29;20036;-58
2023/10/31 05:34:04;;;;;;;0.30;0.30;;;;;;;8.98;100.00;97775.56;4908636;29;20044;-58
2023/10/31 05:36:31;;;;;;;0.20;0.20;;;;;;;8.98;100.00;97780.91;4905960;29;20527;-58
2023/10/31 05:38:58;;;;;;;0.30;0.30;;;;;;;8.97;100.00;97779.31;4908924;29;20411;-58
2023/10/31 05:41:25;;;;;;;0.20;0.20;;;;;;;8.95;100.00;97781.44;4906204;29;20072;-60
2023/10/31 05:43:52;;;;;;;0.20;0.20;;;;;;;9.00;100.00;97784.09;4907832;29;20581;-60
2023/10/31 05:46:19;;;;;;;0.20;0.20;;;;;;;9.01;100.00;97785.69;4912155;29;20047;-60
2023/10/31 05:48:48;;;;;;;0.30;0.30;;;;;;;9.03;100.00;97789.72;4901705;29;20048;-60
2023/10/31 05:51:16;;;;;;;0.20;0.20;;;;;;;9.03;100.00;97797.72;4902916;29;20518;-61
2023/10/31 05:53:44;;;;;;;0.20;0.20;;;;;;;9.01;100.00;97801.72;4904248;29;20120;-61
2023/10/31 05:56:12;;;;;;;0.20;0.20;;;;;;;9.02;100.00;97798.00;4914980;29;20175;-59
2023/10/31 05:58:40;;;;;;;0.20;0.20;;;;;;;9.01;100.00;97801.72;4901043;29;20608;-59
2023/10/31 06:01:07;;;;;;;0.28;0.28;;;;;;;9.03;100.00;97804.94;4905863;29;20074;-59
2023/10/31 06:03:38;;;;;;;0.25;0.25;;;;;;;9.06;100.00;97812.41;4903519;29;20044;-66
2023/10/31 06:06:10;;;;;;;0.22;0.22;;;;;;;9.05;100.00;97816.19;4913436;29;20056;-61
2023/10/31 06:08:42;;;;;;;0.30;0.30;;;;;;;9.10;100.00;97813.50;4902799;29;20060;-59
2023/10/31 06:11:13;;;;;;;0.30;0.30;;;;;;;9.03;100.00;97815.63;4904049;29;20043;-61
2023/10/31 06:13:51;;;;;;;0.20;0.20;;;;;;;9.02;100.00;97819.38;4905248;29;20427;-60
2023/10/31 06:16:19;;;;;;;0.20;0.20;;;;;;;9.05;100.00;97819.66;4902312;29;20044;-59
2023/10/31 06:18:46;;;;;;;0.22;0.22;;;;;;;8.96;100.00;97818.59;4909626;29;20056;-59
2023/10/31 06:21:14;;;;;;;0.30;0.30;;;;;;;9.05;100.00;97825.00;4901237;29;20403;-59
2023/10/31 06:23:44;;;;;;;0.20;0.20;;;;;;;8.99;100.00;97825.28;4904631;29;20128;-58
2023/10/31 06:26:11;;;;;;;0.20;0.20;;;;;;;9.05;100.00;97834.88;4909139;29;20045;-59
2023/10/31 06:28:39;;;;;;;0.20;0.20;;;;;;;9.11;100.00;97838.34;4909060;29;20310;-59
2023/10/31 06:31:06;;;;;;;0.25;0.25;;;;;;;9.05;100.00;97840.22;4905442;29;20067;-59
2023/10/31 06:33:33;;;;;;;0.30;0.30;;;;;;;8.95;100.00;97846.38;4903590;29;20064;-58
2023/10/31 06:36:01;;;;;;;0.25;0.25;;;;;;;8.99;100.00;97841.31;4907761;29;20076;-59
2023/10/31 06:38:29;;;;;;;0.20;0.20;;;;;;;8.96;100.00;97853.34;4905068;29;20044;-59
2023/10/31 06:40:57;;;;;;;0.20;0.20;;;;;;;9.01;100.00;97852.50;4909485;29;20054;-59
2023/10/31 06:43:24;;;;;;;0.20;0.20;;;;;;;9.05;100.00;97850.91;4903852;29;20048;-59
2023/10/31 06:45:51;;;;;;;0.22;0.22;;;;;;;9.05;100.00;97858.94;4899391;29;20473;-60
2023/10/31 06:48:18;;;;;;;0.20;0.20;;;;;;;9.09;100.00;97862.69;4907698;29;20305;-59
2023/10/31 06:50:45;;;;;;;0.20;0.20;;;;;;;9.11;100.00;97865.91;4903145;29;20071;-58
2023/10/31 06:53:12;;;;;;;0.20;0.20;;;;;;;9.19;100.00;97870.72;4907058;29;20048;-59
2023/10/31 06:55:40;;;;;;;0.20;0.20;;;;;;;9.05;100.00;97883.00;4899884;29;20063;-59
2023/10/31 06:58:07;;;;;;;0.20;0.20;;;;;;;8.91;100.00;97882.72;4901796;29;20041;-58
2023/10/31 07:00:34;;;;;;;0.20;0.20;;;;;;;9.01;100.00;97889.91;4907935;29;20033;-59
2023/10/31 07:03:06;;;;;;;0.20;0.20;;;;;;;8.96;100.00;97901.44;4907213;29;20063;-59
2023/10/31 07:05:33;;;;;;;0.20;0.20;;;;;;;8.93;100.00;97903.81;4902905;29;20166;-58
2023/10/31 07:08:00;;;;;;;0.20;0.20;;;;;;;8.91;100.00;97904.09;4910775;29;20068;-59
2023/10/31 07:10:27;;;;;;;0.20;0.20;;;;;;;9.00;100.00;97910.50;4910094;29;20044;-59
2023/10/31 07:12:55;;;;;;;0.20;0.20;;;;;;;9.03;100.00;97911.84;4905315;29;20059;-59
2023/10/31 07:15:22;;;;;;;0.30;0.30;;;;;;;9.02;100.00;97920.94;4914958;29;20072;-59
2023/10/31 07:17:49;;;;;;;0.10;0.10;;;;;;;9.02;100.00;97921.75;4909695;29;20144;-61
2023/10/31 07:20:16;;;;;;;0.20;0.20;;;;;;;8.95;100.00;97926.53;4903415;29;20513;-60
2023/10/31 07:22:45;;;;;;;0.20;0.20;;;;;;;9.01;100.00;97927.34;4910664;29;20060;-61
2023/10/31 07:25:12;;;;;;;0.30;0.30;;;;;;;9.15;100.00;97931.13;4896565;29;20044;-59
2023/10/31 07:27:42;;;;;;;0.20;0.20;;;;;;;9.07;100.00;97935.13;4912270;29;20077;-60
2023/10/31 07:30:11;;;;;;;0.20;0.20;;;;;;;9.21;100.00;97935.44;4907373;29;20066;-60
2023/10/31 07:32:38;;;;;;;0.20;0.20;;;;;;;9.20;100.00;97938.34;4909029;29;20180;-59
2023/10/31 07:35:06;;;;;;;0.30;0.30;;;;;;;9.24;100.00;97937.56;4908217;29;20418;-59
2023/10/31 07:37:33;;;;;;;0.30;0.30;;;;;;;9.21;100.00;97946.13;4912423;29;20253;-59
2023/10/31 07:40:00;;;;;;;0.10;0.10;;;;;;;9.20;100.00;97949.84;4910272;29;20503;-60
2023/10/31 07:42:27;;;;;;;0.30;0.30;;;;;;;9.23;100.00;97954.66;4910968;29;20048;-60
2023/10/31 07:44:55;;;;;;;0.30;0.30;;;;;;;9.20;100.00;97957.84;4913063;29;20056;-59
2023/10/31 07:47:24;;;;;;;0.20;0.20;;;;;;;9.31;100.00;97960.56;4903885;29;20048;-59
2023/10/31 07:49:53;;;;;;;0.20;0.20;;;;;;;9.25;100.00;97957.06;4905577;29;20483;-59
2023/10/31 07:52:20;;;;;;;0.30;0.30;;;;;;;9.24;100.00;97966.97;4902043;29;20048;-59
2023/10/31 07:54:47;;;;;;;0.20;0.20;;;;;;;9.20;100.00;97971.22;4909725;29;20384;-59
2023/10/31 07:57:14;;;;;;;0.25;0.25;;;;;;;9.31;100.00;97971.25;4911629;29;20427;-59
2023/10/31 07:59:41;;;;;;;0.25;0.25;;;;;;;9.45;100.00;97969.66;4916054;29;20112;-59
2023/10/31 08:02:08;;;;;;;0.30;0.30;;;;;;;9.53;100.00;97971.81;4912214;29;20130;-59
2023/10/31 08:04:37;;;;;;;0.20;0.20;;;;;;;9.42;100.00;97983.59;4913758;29;20435;-59
2023/10/31 08:07:04;;;;;;;0.20;0.20;;;;;;;9.48;100.00;97983.34;4907110;29;20227;-59
2023/10/31 08:09:31;;;;;;;0.20;0.20;;;;;;;9.53;100.00;97985.19;4903049;29;20055;-59
2023/10/31 08:11:58;;;;;;;0.25;0.25;;;;;;;9.55;100.00;97991.09;4907775;29;20044;-59
2023/10/31 08:14:26;;;;;;;0.20;0.20;;;;;;;9.78;100.00;97994.31;4907822;29;20049;-59
2023/10/31 08:16:52;;;;;;;0.20;0.20;;;;;;;9.61;100.00;97997.22;4899102;29;20155;-60
2023/10/31 08:19:19;;;;;;;0.10;0.10;;;;;;;9.62;100.00;97998.84;4910421;29;20079;-60
2023/10/31 08:21:48;;;;;;;0.20;0.20;;;;;;;9.59;100.00;97997.50;4909232;29;20051;-59
2023/10/31 08:24:15;;;;;;;0.20;0.20;;;;;;;9.59;100.00;98002.88;4906785;29;20044;-59
2023/10/31 08:26:42;;;;;;;0.20;0.20;;;;;;;9.63;100.00;97993.22;4915054;29;20043;-60
2023/10/31 08:29:09;;;;;;;0.20;0.20;;;;;;;9.64;100.00;98002.88;4902041;29;20539;-60
2023/10/31 08:31:36;;;;;;;0.30;0.30;;;;;;;9.62;100.00;98004.22;4903351;29;20071;-58
2023/10/31 08:34:03;;;;;;;0.20;0.20;;;;;;;9.70;100.00;98001.00;4911135;29;20486;-60
2023/10/31 08:36:30;;;;;;;0.20;0.20;;;;;;;9.78;100.00;98007.69;4897497;29;20124;-61
2023/10/31 08:38:59;;;;;;;0.20;0.20;;;;;;;9.81;100.00;98010.66;4907178;29;20063;-59
2023/10/31 08:41:26;;;;;;;0.20;0.20;;;;;;;9.95;100.00;98016.25;4903300;29;20072;-61
2023/10/31 08:43:53;;;;;;;0.30;0.30;;;;;;;10.40;100.00;98024.56;4909324;29;20054;-59
2023/10/31 08:46:21;;;;;;;0.30;0.30;;;;;;;11.07;100.00;98027.84;4908041;29;20143;-59
2023/10/31 08:48:49;;;;;;;0.20;0.20;;;;;;;11.12;100.00;98033.19;4909451;29;20285;-59
2023/10/31 08:51:16;;;;;;;0.40;0.40;;;;;;;11.37;100.00;98032.28;4905490;29;20056;-59
2023/10/31 08:53:43;;;;;;;0.30;0.30;;;;;;;11.78;100.00;98046.25;4909340;29;20491;-59
2023/10/31 08:56:11;;;;;;;0.20;0.20;;;;;;;12.12;100.00;98052.75;4909953;29;20132;-59
2023/10/31 08:58:38;;;;;;;0.10;0.10;;;;;;;11.87;100.00;98058.03;4906074;29;20488;-59
2023/10/31 09:01:05;;;;;;;0.20;0.20;;;;;;;11.73;100.00;98053.53;4905676;29;20140;-59
2023/10/31 09:03:32;;;;;;;0.20;0.20;;;;;;;11.93;100.00;98055.28;4901967;29;20048;-59
2023/10/31 09:06:00;;;;;;;0.20;0.20;;;;;;;12.70;100.00;98060.81;4915500;29;20485;-59
2023/10/31 09:08:27;;;;;;;0.20;0.20;;;;;;;12.25;100.00;98068.22;4908140;29;20048;-59
2023/10/31 09:10:54;;;;;;;0.17;0.17;;;;;;;11.76;100.00;98077.94;4904458;29;20079;-59
2023/10/31 09:13:22;;;;;;;0.20;0.20;;;;;;;11.23;100.00;98080.34;4904229;29;20143;-59
2023/10/31 09:15:50;;;;;;;0.20;0.20;;;;;;;11.36;100.00;98090.50;4899942;29;20119;-59
2023/10/31 09:18:17;;;;;;;0.20;0.20;;;;;;;11.39;100.00;98087.25;4916164;29;20446;-59
2023/10/31 09:20:44;;;;;;;0.25;0.25;;;;;;;12.04;100.00;98094.44;4897540;29;20139;-59
2023/10/31 09:23:11;;;;;;;0.10;0.10;;;;;;;12.14;100.00;98105.09;4897273;29;20100;-59
2023/10/31 09:25:38;;;;;;;0.20;0.20;;;;;;;11.68;100.00;98108.03;4909958;29;20047;-59
2023/10/31 09:28:06;;;;;;;0.20;0.20;;;;;;;11.98;100.00;98101.72;4904680;29;20135;-59
2023/10/31 09:30:34;;;;;;;0.20;0.20;;;;;;;12.34;100.00;98106.03;4917201;29;20044;-59
2023/10/31 09:33:01;;;;;;;0.10;0.10;;;;;;;12.40;100.00;98115.66;4894144;29;20055;-59
2023/10/31 09:35:28;;;;;;;0.20;0.20;;;;;;;12.72;100.00;98109.72;4897096;29;20063;-59
2023/10/31 09:37:55;;;;;;;0.10;0.10;;;;;;;12.17;100.00;98115.28;4907272;29;20095;-59
2023/10/31 09:40:22;;;;;;;0.13;0.13;;;;;;;12.00;100.00;98120.22;4899046;29;20525;-59
2023/10/31 09:42:49;;;;;;;0.15;0.15;;;;;;;11.69;100.00;98125.75;4903990;29;20084;-59
2023/10/31 09:45:16;;;;;;;0.15;0.15;;;;;;;11.64;100.00;98123.09;4898706;29;20045;-59
2023/10/31 09:47:45;;;;;;;0.17;0.17;;;;;;;11.51;100.00;98129.06;4909983;29;20052;-59
2023/10/31 09:50:12;;;;;;;0.10;0.10;;;;;;;11.39;100.00;98127.50;4899352;29;20076;-59
2023/10/31 09:52:39;;;;;;;0.20;0.20;;;;;;;11.34;100.00;98135.56;4909339;29;20052;-59
2023/10/31 09:55:07;;;;;;;0.17;0.17;;;;;;;11.38;100.00;98130.44;4904532;29;20551;-59
2023/10/31 09:57:34;;;;;;;0.10;0.10;;;;;;;11.08;100.00;98125.97;4909213;29;20076;-59
2023/10/31 10:00:01;;;;;;;0.20;0.20;;;;;;;11.35;100.00;98136.34;4908806;29;20139;-59
2023/10/31 10:02:37;;;;;;;0.20;0.20;;;;;;;11.34;100.00;98140.94;4911852;29;20495;-59
2023/10/31 10:05:06;;;;;;;0.10;0.10;;;;;;;11.38;100.00;98133.13;4906613;29;20051;-58
2023/10/31 10:07:34;;;;;;;0.20;0.20;;;;;;;11.96;100.00;98143.38;4905009;29;20045;-59
2023/10/31 10:10:01;;;;;;;0.20;0.20;;;;;;;12.92;100.00;98146.38;4907645;29;20041;-59
2023/10/31 10:12:28;;;;;;;0.10;0.10;;;;;;;12.53;100.00;98155.34;4900958;29;20079;-59
2023/10/31 10:14:58;;;;;;;0.30;0.30;;;;;;;12.93;100.00;98142.59;4901574;29;20143;-59
2023/10/31 10:17:25;;;;;;;0.20;0.20;;;;;;;13.50;96.77;98146.28;4906516;29;20067;-59
2023/10/31 10:20:10;;;;;;;0.10;0.10;;;;;;;12.77;99.45;98141.13;4902482;29;20051;-59
2023/10/31 10:22:39;;;;;;;0.20;0.20;;;;;;;13.24;98.14;98145.78;4904428;29;20419;-59
2023/10/31 10:25:07;;;;;;;0.15;0.15;;;;;;;13.67;95.93;98142.34;4904584;29;20052;-59
2023/10/31 10:27:35;;;;;;;0.10;0.10;;;;;;;12.96;97.18;98136.66;4911070;29;20036;-58
2023/10/31 10:30:04;;;;;;;0.20;0.20;;;;;;;13.56;95.50;98152.44;4904179;29;20053;-59
2023/10/31 10:32:32;;;;;;;0.20;0.20;;;;;;;13.08;97.43;98139.75;4901736;29;20127;-59
2023/10/31 10:34:59;;;;;;;0.20;0.20;;;;;;;13.67;94.01;98145.03;4904734;29;20475;-59
2023/10/31 10:37:28;;;;;;;0.20;0.20;;;;;;;13.52;93.31;98149.50;4905845;29;20048;-59
2023/10/31 10:39:55;;;;;;;0.10;0.10;;;;;;;13.01;98.44;98144.66;4900138;29;20539;-59
2023/10/31 10:42:26;;;;;;;0.20;0.20;;;;;;;13.02;96.95;98151.66;4899769;29;20048;-59
2023/10/31 10:44:54;;;;;;;0.20;0.20;;;;;;;13.23;96.74;98151.44;4910460;29;20135;-59
2023/10/31 10:47:21;;;;;;;0.20;0.20;;;;;;;13.17;96.76;98159.56;4918258;29;20055;-59
2023/10/31 10:49:48;;;;;;;0.10;0.10;;;;;;;12.93;96.04;98151.47;4906107;29;20135;-59
2023/10/31 10:52:18;;;;;;;0.10;0.10;;;;;;;13.94;91.19;98153.28;4903045;29;20045;-59
2023/10/31 10:54:51;;;;;;;0.10;0.10;;;;;;;13.65;92.33;98157.97;4906525;29;20144;-59
2023/10/31 10:57:23;;;;;;;0.20;0.20;;;;;;;13.04;95.29;98154.84;4906043;29;20107;-58
2023/10/31 10:59:52;;;;;;;0.17;0.17;;;;;;;13.26;95.44;98156.25;4905515;29;20151;-59
2023/10/31 11:02:19;;;;;;;0.10;0.10;;;;;;;12.96;96.77;98152.78;4907642;29;20071;-60
2023/10/31 11:04:46;;;;;;;0.10;0.10;;;;;;;12.27;96.96;98158.19;4908963;29;20059;-60
2023/10/31 11:07:13;;;;;;;0.10;0.10;;;;;;;12.41;98.98;98157.56;4906307;29;20075;-60
2023/10/31 11:09:41;;;;;;;0.13;0.13;;;;;;;12.80;97.10;98159.38;4906018;29;20037;-60
2023/10/31 11:12:09;;;;;;;0.15;0.15;;;;;;;12.96;96.45;98163.56;4906210;29;20389;-60
2023/10/31 11:14:36;;;;;;;0.10;0.10;;;;;;;13.06;95.26;98163.44;4910020;29;20052;-60
2023/10/31 11:17:08;;;;;;;0.10;0.10;;;;;;;13.18;94.42;98157.69;4908553;29;20103;-60
2023/10/31 11:19:35;;;;;;;0.10;0.10;;;;;;;13.30;93.13;98157.31;4908058;29;20044;-60
2023/10/31 11:22:02;;;;;;;0.20;0.20;;;;;;;12.89;94.88;98161.19;4907343;29;20203;-60
2023/10/31 11:24:32;;;;;;;0.10;0.10;;;;;;;13.09;93.46;98162.88;4905648;29;20044;-61
2023/10/31 11:27:00;;;;;;;0.13;0.13;;;;;;;13.32;91.96;98155.13;4907262;29;20602;-58
2023/10/31 11:29:28;;;;;;;0.10;0.10;;;;;;;12.99;91.99;98154.91;4904742;29;20402;-60
2023/10/31 11:31:56;;;;;;;0.10;0.10;;;;;;;13.35;92.10;98159.94;4907801;29;20544;-59
2023/10/31 11:34:23;;;;;;;0.10;0.10;;;;;;;13.13;92.95;98163.91;4906514;29;20134;-60